Time;durP1;ratioP1;P1;durP2;ratioP2;P2;SDS_P1;SDS_P2;PMS_P1;PMS_P2;Temp;Humidity;BMP_temperature;BMP_pressure;BME280_temperature;BME280_humidity;BME280_pressure;Samples;Min_cycle;Max_cycle;Signal;HPM_P1;HPM_P2
2023/10/08 00:00:53;;;;;;;0.32;0.32;;;;;;;11.85;97.61;101214.09;7393866;19;20492;-66
2023/10/08 00:03:29;;;;;;;0.30;0.22;;;;;;;11.81;97.87;101212.44;7398744;19;20014;-66
2023/10/08 00:05:57;;;;;;;0.25;0.20;;;;;;;11.78;98.19;101215.97;7398542;19;20018;-67
2023/10/08 00:08:26;;;;;;;0.35;0.22;;;;;;;11.76;97.86;101219.53;7398241;19;20018;-67
2023/10/08 00:10:54;;;;;;;0.65;0.28;;;;;;;11.75;97.67;101223.91;7400190;19;20556;-66
2023/10/08 00:13:23;;;;;;;0.30;0.20;;;;;;;11.77;98.64;101223.91;7400133;19;20010;-67
2023/10/08 00:15:55;;;;;;;0.20;0.20;;;;;;;11.77;98.35;101229.16;7398695;19;20014;-67
2023/10/08 00:18:27;;;;;;;0.95;0.25;;;;;;;11.79;98.32;101227.34;7398842;19;20037;-67
2023/10/08 00:21:05;;;;;;;0.88;0.20;;;;;;;11.78;98.99;101237.00;7399806;19;20383;-67
2023/10/08 00:23:35;;;;;;;0.40;0.30;;;;;;;11.75;98.58;101242.31;7398286;19;20014;-66
2023/10/08 00:26:10;;;;;;;0.32;0.20;;;;;;;11.74;99.10;101240.59;7400269;19;20011;-67
2023/10/08 00:28:40;;;;;;;0.50;0.20;;;;;;;11.70;99.61;101239.78;7397616;19;20010;-66
2023/10/08 00:31:12;;;;;;;0.30;0.30;;;;;;;11.68;99.22;101240.72;7399967;19;20362;-67
2023/10/08 00:33:44;;;;;;;0.20;0.20;;;;;;;11.66;99.12;101247.75;7397848;19;20010;-67
2023/10/08 00:36:20;;;;;;;0.82;0.20;;;;;;;11.62;100.00;101253.97;7397322;19;20430;-65
2023/10/08 00:38:52;;;;;;;0.30;0.20;;;;;;;11.56;99.93;101254.91;7396754;19;20481;-66
2023/10/08 00:41:21;;;;;;;0.60;0.40;;;;;;;11.52;100.00;101263.75;7399320;19;20532;-66
2023/10/08 00:43:51;;;;;;;0.73;0.25;;;;;;;11.48;100.00;101262.94;7399223;19;20382;-67
2023/10/08 00:46:23;;;;;;;0.68;0.25;;;;;;;11.46;100.00;101256.88;7398227;19;20024;-67
2023/10/08 00:48:57;;;;;;;0.95;0.20;;;;;;;11.43;100.00;101264.78;7397458;19;20048;-67
2023/10/08 00:51:39;;;;;;;0.98;0.30;;;;;;;11.42;100.00;101263.03;7396843;19;20007;-66
2023/10/08 00:54:10;;;;;;;0.95;0.30;;;;;;;11.39;100.00;101277.09;7399613;19;20074;-67
2023/10/08 00:56:49;;;;;;;0.47;0.32;;;;;;;11.34;100.00;101283.34;7397601;19;20014;-66
2023/10/08 00:59:21;;;;;;;0.47;0.20;;;;;;;11.23;100.00;101294.88;7399498;19;20010;-66
2023/10/08 01:01:51;;;;;;;1.17;0.43;;;;;;;11.12;100.00;101302.06;7399461;19;20031;-67
2023/10/08 01:04:26;;;;;;;0.52;0.30;;;;;;;11.01;100.00;101296.97;7398882;19;20011;-68
2023/10/08 01:06:59;;;;;;;1.35;0.55;;;;;;;10.95;100.00;101277.81;7398653;19;20438;-67
2023/10/08 01:09:31;;;;;;;1.15;0.47;;;;;;;10.88;100.00;101285.78;7398455;19;20516;-67
2023/10/08 01:12:15;;;;;;;1.63;0.60;;;;;;;10.82;100.00;101283.22;7395736;19;20006;-67
2023/10/08 01:14:49;;;;;;;3.47;1.00;;;;;;;10.79;100.00;101292.91;7396565;19;20432;-66
2023/10/08 01:17:19;;;;;;;1.95;0.50;;;;;;;10.73;100.00;101296.50;7396719;19;20022;-66
2023/10/08 01:19:56;;;;;;;2.25;0.80;;;;;;;10.67;100.00;101297.44;7395970;19;20500;-67
2023/10/08 01:22:29;;;;;;;2.47;0.75;;;;;;;10.63;100.00;101286.97;7398699;19;20030;-67
2023/10/08 01:25:01;;;;;;;2.35;0.45;;;;;;;10.58;100.00;101306.28;7395848;19;20481;-65
2023/10/08 01:27:34;;;;;;;1.25;0.60;;;;;;;10.56;100.00;101318.56;7397726;19;20384;-67
2023/10/08 01:30:17;;;;;;;1.13;0.40;;;;;;;10.57;100.00;101327.31;7396503;19;20037;-65
2023/10/08 01:32:46;;;;;;;3.00;0.95;;;;;;;10.55;100.00;101329.94;7395648;19;20010;-66
2023/10/08 01:35:22;;;;;;;3.28;0.70;;;;;;;10.56;100.00;101330.81;7397689;19;20010;-66
2023/10/08 01:37:56;;;;;;;3.85;0.93;;;;;;;10.56;100.00;101331.69;7395744;19;20082;-69
2023/10/08 01:40:24;;;;;;;2.03;0.43;;;;;;;10.56;100.00;101326.44;7398147;19;20018;-67
2023/10/08 01:42:54;;;;;;;3.40;0.60;;;;;;;10.59;100.00;101330.78;7397581;19;20090;-67
2023/10/08 01:45:24;;;;;;;2.30;0.70;;;;;;;10.58;100.00;101342.16;7395181;19;20373;-67
2023/10/08 01:47:54;;;;;;;1.02;0.43;;;;;;;10.53;100.00;101359.72;7395494;19;20017;-66
2023/10/08 01:50:24;;;;;;;2.55;0.95;;;;;;;10.46;100.00;101369.41;7395529;19;20074;-66
2023/10/08 01:52:56;;;;;;;3.08;0.90;;;;;;;10.41;100.00;101376.44;7395524;19;20066;-66
2023/10/08 01:55:24;;;;;;;0.93;0.60;;;;;;;10.38;100.00;101374.72;7396381;19;20010;-66
2023/10/08 01:57:54;;;;;;;2.67;0.93;;;;;;;10.40;100.00;101374.69;7395803;19;20617;-67
2023/10/08 02:00:23;;;;;;;3.70;1.15;;;;;;;10.38;100.00;101377.34;7396980;19;20011;-66
2023/10/08 02:02:53;;;;;;;2.92;0.80;;;;;;;10.38;100.00;101372.09;7397442;19;20030;-65
2023/10/08 02:05:22;;;;;;;2.15;1.00;;;;;;;10.34;100.00;101372.16;7396533;19;20502;-65
2023/10/08 02:07:51;;;;;;;1.83;1.10;;;;;;;10.30;100.00;101373.94;7395871;19;20437;-65
2023/10/08 02:10:22;;;;;;;1.95;0.88;;;;;;;10.28;100.00;101387.03;7396775;19;20023;-66
2023/10/08 02:12:50;;;;;;;1.70;0.95;;;;;;;10.25;100.00;101397.56;7394560;19;20510;-65
2023/10/08 02:15:19;;;;;;;4.85;1.27;;;;;;;10.26;100.00;101398.41;7396266;19;20077;-66
2023/10/08 02:17:49;;;;;;;3.03;1.00;;;;;;;10.28;100.00;101409.78;7395799;19;20014;-66
2023/10/08 02:20:18;;;;;;;2.88;1.20;;;;;;;10.27;100.00;101422.03;7396389;19;20376;-68
2023/10/08 02:22:49;;;;;;;3.33;1.85;;;;;;;10.26;100.00;101417.66;7395962;19;20444;-67
2023/10/08 02:25:18;;;;;;;2.00;1.13;;;;;;;10.29;100.00;101424.63;7396142;19;20025;-67
2023/10/08 02:27:50;;;;;;;3.03;1.00;;;;;;;10.30;100.00;101421.13;7394843;19;20485;-67
2023/10/08 02:30:18;;;;;;;1.80;0.90;;;;;;;10.29;100.00;101429.88;7395710;19;20509;-67
2023/10/08 02:32:47;;;;;;;4.32;1.40;;;;;;;10.28;100.00;101429.00;7395882;19;20027;-67
2023/10/08 02:35:15;;;;;;;2.03;1.10;;;;;;;10.27;100.00;101427.28;7393765;19;20011;-68
2023/10/08 02:37:45;;;;;;;2.35;1.15;;;;;;;10.27;100.00;101440.41;7394502;19;20081;-67
2023/10/08 02:40:19;;;;;;;4.40;1.42;;;;;;;10.25;100.00;101446.53;7395244;19;20477;-66
2023/10/08 02:42:51;;;;;;;1.88;1.02;;;;;;;10.22;100.00;101457.94;7396001;19;20033;-67
2023/10/08 02:45:19;;;;;;;6.53;1.42;;;;;;;10.20;100.00;101459.69;7395269;19;20481;-67
2023/10/08 02:47:52;;;;;;;7.20;1.70;;;;;;;10.17;100.00;101454.44;7393582;19;20018;-67
2023/10/08 02:50:22;;;;;;;5.78;1.20;;;;;;;10.16;100.00;101450.13;7393464;19;20493;-67
2023/10/08 02:52:50;;;;;;;3.55;1.42;;;;;;;10.15;100.00;101447.47;7395372;19;20011;-67
2023/10/08 02:55:33;;;;;;;4.88;1.40;;;;;;;10.15;100.00;101448.38;7393162;19;20477;-67
2023/10/08 02:58:06;;;;;;;3.20;0.98;;;;;;;10.12;100.00;101453.63;7393946;19;20438;-67
2023/10/08 03:00:35;;;;;;;4.28;1.20;;;;;;;10.13;100.00;101433.53;7395593;19;20041;-67
2023/10/08 03:03:10;;;;;;;5.30;1.30;;;;;;;10.13;100.00;101431.75;7395129;19;20015;-67
2023/10/08 03:05:38;;;;;;;2.58;1.10;;;;;;;10.14;100.00;101435.28;7394778;19;20007;-67
2023/10/08 03:08:10;;;;;;;3.17;1.10;;;;;;;10.13;100.00;101430.91;7393028;19;20083;-68
2023/10/08 03:10:41;;;;;;;2.75;1.75;;;;;;;10.14;100.00;101430.03;7392595;19;20034;-66
2023/10/08 03:13:12;;;;;;;5.30;1.58;;;;;;;10.17;100.00;101451.81;7393729;19;20014;-67
2023/10/08 03:15:46;;;;;;;4.47;1.50;;;;;;;10.21;100.00;101463.16;7394097;19;20502;-68
2023/10/08 03:18:21;;;;;;;4.38;1.83;;;;;;;10.20;100.00;101471.94;7393683;19;20031;-67
2023/10/08 03:20:50;;;;;;;2.88;1.80;;;;;;;10.20;100.00;101462.31;7395172;19;20078;-68
2023/10/08 03:23:33;;;;;;;3.50;1.60;;;;;;;10.23;100.00;101459.63;7392362;19;20020;-66
2023/10/08 03:26:10;;;;;;;5.90;1.88;;;;;;;10.25;100.00;101460.50;7394632;19;20017;-66
2023/10/08 03:28:41;;;;;;;4.25;1.70;;;;;;;10.27;100.00;101448.25;7392646;19;20014;-67
2023/10/08 03:31:16;;;;;;;4.45;1.45;;;;;;;10.28;100.00;101455.22;7392196;19;20502;-67
2023/10/08 03:33:49;;;;;;;3.08;1.65;;;;;;;10.30;100.00;101456.97;7394825;19;20014;-66
2023/10/08 03:36:21;;;;;;;2.78;1.25;;;;;;;10.32;100.00;101468.31;7394143;19;20029;-66
2023/10/08 03:38:52;;;;;;;5.47;1.95;;;;;;;10.34;100.00;101483.16;7399432;19;20077;-66
2023/10/08 03:41:27;;;;;;;4.65;1.50;;;;;;;10.36;100.00;101472.69;7399398;19;20038;-67
2023/10/08 03:44:01;;;;;;;3.15;2.28;;;;;;;10.36;100.00;101470.06;7399204;19;20014;-67
2023/10/08 03:46:31;;;;;;;10.50;1.85;;;;;;;10.37;100.00;101484.91;7398208;19;20488;-67
2023/10/08 03:49:04;;;;;;;4.10;1.75;;;;;;;10.38;100.00;101486.66;7398554;19;20465;-67
2023/10/08 03:51:39;;;;;;;5.65;1.95;;;;;;;10.37;100.00;101493.66;7399055;19;20082;-66
2023/10/08 03:54:18;;;;;;;2.75;1.45;;;;;;;10.38;100.00;101503.25;7400967;19;20357;-67
2023/10/08 03:56:48;;;;;;;4.63;2.05;;;;;;;10.38;100.00;101505.03;7400088;19;20022;-67
2023/10/08 03:59:30;;;;;;;3.92;1.60;;;;;;;10.37;100.00;101508.53;7401027;19;20014;-67
2023/10/08 04:02:07;;;;;;;6.03;2.45;;;;;;;10.36;100.00;101519.91;7401036;19;20010;-66
2023/10/08 04:04:48;;;;;;;3.88;2.22;;;;;;;10.36;100.00;101525.16;7398783;19;20078;-67
2023/10/08 04:07:28;;;;;;;2.78;1.65;;;;;;;10.35;100.00;101544.34;7399937;19;20034;-66
2023/10/08 04:10:20;;;;;;;6.13;1.98;;;;;;;10.34;100.00;101535.63;7400198;19;20337;-67
2023/10/08 04:12:50;;;;;;;7.15;1.92;;;;;;;10.33;100.00;101538.25;7401130;19;20042;-67
2023/10/08 04:15:23;;;;;;;5.00;1.80;;;;;;;10.33;100.00;101543.50;7397795;19;20033;-67
2023/10/08 04:17:53;;;;;;;4.95;1.42;;;;;;;10.31;100.00;101538.25;7397506;19;20033;-67
2023/10/08 04:20:38;;;;;;;6.03;1.40;;;;;;;10.30;100.00;101546.13;7400320;19;20029;-66
2023/10/08 04:23:13;;;;;;;4.93;1.80;;;;;;;10.30;100.00;101551.38;7400309;19;20487;-66
2023/10/08 04:25:43;;;;;;;3.72;1.70;;;;;;;10.30;100.00;101554.00;7400175;19;20014;-67
2023/10/08 04:28:17;;;;;;;6.57;1.80;;;;;;;10.29;100.00;101561.03;7398275;19;20477;-67
2023/10/08 04:30:50;;;;;;;5.10;1.83;;;;;;;10.29;100.00;101574.13;7399728;19;20502;-67
2023/10/08 04:33:19;;;;;;;7.10;2.10;;;;;;;10.26;100.00;101572.41;7400487;19;20037;-66
2023/10/08 04:35:51;;;;;;;5.15;1.63;;;;;;;10.25;100.00;101580.28;7399461;19;21119;-67
2023/10/08 04:38:22;;;;;;;7.40;2.00;;;;;;;10.23;100.00;101589.91;7397798;19;20070;-67
2023/10/08 04:40:52;;;;;;;6.07;2.05;;;;;;;10.23;100.00;101593.38;7397763;19;20031;-68
2023/10/08 04:43:24;;;;;;;8.25;2.40;;;;;;;10.23;100.00;101598.63;7399258;19;20017;-67
2023/10/08 04:45:57;;;;;;;5.90;2.10;;;;;;;10.24;100.00;101607.41;7398539;19;20017;-67
2023/10/08 04:48:29;;;;;;;5.70;2.22;;;;;;;10.22;100.00;101604.78;7397321;19;20473;-67
2023/10/08 04:51:01;;;;;;;7.97;2.50;;;;;;;10.20;100.00;101600.44;7399370;19;20011;-67
2023/10/08 04:53:36;;;;;;;6.40;2.58;;;;;;;10.21;100.00;101610.03;7398765;19;20015;-67
2023/10/08 04:56:13;;;;;;;7.85;2.72;;;;;;;10.21;100.00;101610.91;7396913;19;20010;-67
2023/10/08 04:58:46;;;;;;;9.65;2.97;;;;;;;10.23;100.00;101603.88;7396942;19;20014;-67
2023/10/08 05:01:21;;;;;;;4.67;2.73;;;;;;;10.24;100.00;101605.63;7397325;19;20051;-67
2023/10/08 05:06:50;;;;;;;8.15;2.58;;;;;;;10.27;100.00;101609.97;7398922;19;20070;-67
2023/10/08 05:09:22;;;;;;;6.60;3.00;;;;;;;10.28;100.00;101622.22;7399161;19;20011;-67
2023/10/08 05:14:45;;;;;;;6.18;2.53;;;;;;;10.28;100.00;101632.72;7395912;19;20022;-68
2023/10/08 05:17:22;;;;;;;5.82;2.30;;;;;;;10.27;100.00;101630.97;7397195;19;20019;-68
2023/10/08 05:20:01;;;;;;;10.20;2.67;;;;;;;10.25;100.00;101633.59;7398858;19;20381;-66
2023/10/08 05:25:24;;;;;;;9.13;2.45;;;;;;;10.23;100.00;101652.84;7398639;19;20339;-68
2023/10/08 05:27:58;;;;;;;6.03;3.17;;;;;;;10.25;100.00;101654.59;7396752;19;20498;-66
2023/10/08 05:30:28;;;;;;;7.38;3.40;;;;;;;10.26;100.00;101661.56;7398445;19;20022;-67
2023/10/08 05:33:12;;;;;;;8.38;3.13;;;;;;;10.26;100.00;101665.94;7397766;19;20370;-67
2023/10/08 05:35:54;;;;;;;8.43;3.38;;;;;;;10.24;100.00;101671.19;7397668;19;20070;-67
2023/10/08 05:38:38;;;;;;;10.55;4.03;;;;;;;10.23;100.00;101668.59;7396022;19;20018;-67
2023/10/08 05:41:16;;;;;;;9.65;3.45;;;;;;;10.24;100.00;101665.09;7397868;19;20043;-67
2023/10/08 05:52:13;;;;;;;12.52;3.40;;;;;;;10.23;100.00;101682.56;7394506;19;20014;-67
2023/10/08 05:54:57;;;;;;;7.80;3.10;;;;;;;10.22;100.00;101686.09;7397780;19;20028;-67
2023/10/08 05:57:38;;;;;;;11.57;3.45;;;;;;;10.17;100.00;101697.47;7395584;19;20015;-67
2023/10/08 06:00:45;;;;;;;14.68;3.78;;;;;;;10.17;100.00;101698.31;7396330;19;20014;-66
2023/10/08 06:03:31;;;;;;;11.60;3.75;;;;;;;10.15;100.00;101693.97;7396461;19;20011;-67
2023/10/08 06:08:52;;;;;;;;;;;;;;;10.16;100.00;101743.81;7396234;19;20029;-66
2023/10/08 06:11:36;;;;;;;7.68;3.40;;;;;;;10.16;100.00;101728.06;7397064;19;19921;-67
2023/10/08 06:14:13;;;;;;;;;;;;;;;10.17;100.00;101727.16;7397066;19;20015;-67
2023/10/08 06:16:43;;;;;;;8.18;3.75;;;;;;;10.19;100.00;101743.78;7396593;19;19925;-67
2023/10/08 06:19:13;;;;;;;18.75;4.00;;;;;;;10.22;100.00;101738.53;7396936;19;20018;-67
2023/10/08 06:21:42;;;;;;;5.82;3.85;;;;;;;10.24;100.00;101738.53;7396969;19;20025;-67
2023/10/08 06:24:16;;;;;;;8.10;4.30;;;;;;;10.27;100.00;101736.75;7396288;19;20018;-68
2023/10/08 06:26:51;;;;;;;;;;;;;;;10.28;100.00;101754.22;7397597;19;20037;-66
2023/10/08 06:29:27;;;;;;;10.05;3.30;;;;;;;10.30;100.00;101762.09;7395886;19;19919;-67
2023/10/08 06:31:56;;;;;;;13.73;4.68;;;;;;;10.33;100.00;101758.59;7396404;19;20007;-67
2023/10/08 06:34:27;;;;;;;11.27;3.85;;;;;;;10.33;100.00;101769.09;7395929;19;20090;-66
2023/10/08 06:37:03;;;;;;;8.25;4.00;;;;;;;10.34;100.00;101761.22;7395516;19;20013;-68
2023/10/08 06:39:47;;;;;;;8.15;3.72;;;;;;;10.34;100.00;101763.84;7396080;19;20014;-67
2023/10/08 06:42:16;;;;;;;16.60;4.27;;;;;;;10.36;100.00;101771.72;7396200;19;20389;-67
2023/10/08 06:44:46;;;;;;;14.90;4.07;;;;;;;10.38;100.00;101785.72;7395624;19;20014;-67
2023/10/08 06:47:15;;;;;;;7.97;3.63;;;;;;;10.38;100.00;101790.97;7394355;19;20090;-66
2023/10/08 06:49:44;;;;;;;11.60;4.95;;;;;;;10.39;100.00;101795.34;7394930;19;20007;-67
2023/10/08 06:52:15;;;;;;;15.30;4.30;;;;;;;10.43;100.00;101800.53;7394785;19;20346;-66
2023/10/08 06:54:44;;;;;;;16.52;4.85;;;;;;;10.47;100.00;101800.53;7392958;19;20017;-65
2023/10/08 06:57:13;;;;;;;11.27;4.28;;;;;;;10.50;100.00;101800.50;7393485;19;20023;-66
2023/10/08 06:59:42;;;;;;;7.93;4.47;;;;;;;10.51;100.00;101797.03;7395407;19;20086;-67
2023/10/08 07:02:11;;;;;;;12.77;4.40;;;;;;;10.52;100.00;101812.75;7394746;19;20493;-67
2023/10/08 07:04:41;;;;;;;11.95;3.92;;;;;;;10.53;100.00;101811.00;7392465;19;20010;-67
2023/10/08 07:07:09;;;;;;;14.93;4.38;;;;;;;10.54;100.00;101817.97;7395174;19;20015;-67
2023/10/08 07:09:43;;;;;;;11.57;4.03;;;;;;;10.56;100.00;101829.34;7392683;19;20506;-67
2023/10/08 07:12:14;;;;;;;;;;;;;;;10.57;100.00;101825.84;7397853;19;20011;-67
2023/10/08 07:14:43;;;;;;;12.52;3.88;;;;;;;10.61;100.00;101839.84;7402453;19;19941;-67
2023/10/08 07:17:19;;;;;;;8.43;3.63;;;;;;;10.62;100.00;101841.59;7400869;19;20512;-67
2023/10/08 07:19:50;;;;;;;8.52;3.63;;;;;;;10.64;100.00;101837.19;7402261;19;20374;-67
2023/10/08 07:22:22;;;;;;;11.25;3.60;;;;;;;10.67;100.00;101839.81;7399671;19;20021;-67
2023/10/08 07:24:54;;;;;;;8.85;3.20;;;;;;;10.68;100.00;101847.69;7402579;19;20031;-68
2023/10/08 07:27:29;;;;;;;7.88;3.00;;;;;;;10.67;100.00;101861.69;7398744;19;20368;-67
2023/10/08 07:30:01;;;;;;;7.55;3.33;;;;;;;10.69;100.00;101859.03;7402352;19;20018;-67
2023/10/08 07:32:30;;;;;;;13.32;3.33;;;;;;;10.71;100.00;101873.03;7401930;19;20013;-67
2023/10/08 07:35:14;;;;;;;9.50;3.17;;;;;;;10.71;100.00;101876.53;7401714;19;20022;-67
2023/10/08 07:37:44;;;;;;;10.98;3.35;;;;;;;10.72;100.00;101875.66;7399931;19;20484;-67
2023/10/08 07:40:16;;;;;;;8.90;3.13;;;;;;;10.74;100.00;101878.25;7401126;19;20417;-66
2023/10/08 07:42:49;;;;;;;9.70;2.92;;;;;;;10.74;100.00;101878.25;7402024;19;20011;-67
2023/10/08 07:45:21;;;;;;;11.68;3.80;;;;;;;10.72;99.89;101890.53;7401907;19;20023;-67
2023/10/08 07:47:50;;;;;;;7.90;3.05;;;;;;;10.70;100.00;101890.56;7397286;19;20481;-67
2023/10/08 07:50:19;;;;;;;5.88;2.90;;;;;;;10.71;99.92;101894.03;7398203;19;20015;-67
2023/10/08 07:52:48;;;;;;;8.75;3.22;;;;;;;10.71;100.00;101888.78;7398242;19;20021;-67
2023/10/08 07:55:19;;;;;;;7.80;2.83;;;;;;;10.72;100.00;101893.16;7396327;19;20014;-68
2023/10/08 07:57:48;;;;;;;7.80;3.80;;;;;;;10.74;98.83;101902.78;7396884;19;20014;-67
2023/10/08 08:00:22;;;;;;;7.07;3.05;;;;;;;10.73;98.91;101895.78;7397955;19;20007;-67
2023/10/08 08:02:52;;;;;;;9.73;3.60;;;;;;;10.72;98.98;101899.28;7396419;19;20018;-68
2023/10/08 08:05:21;;;;;;;12.07;2.95;;;;;;;10.74;99.06;101908.03;7397799;19;20389;-68
2023/10/08 08:07:49;;;;;;;9.73;2.67;;;;;;;10.75;97.50;101916.75;7397112;19;20010;-67
2023/10/08 08:10:23;;;;;;;6.60;2.17;;;;;;;10.72;96.38;101909.78;7398093;19;20014;-68
2023/10/08 08:12:56;;;;;;;6.55;1.95;;;;;;;10.69;94.08;101920.28;7398194;19;20007;-67
2023/10/08 08:15:26;;;;;;;5.88;2.10;;;;;;;10.70;94.80;101919.41;7398821;19;20011;-67
2023/10/08 08:17:55;;;;;;;8.23;2.20;;;;;;;10.72;93.18;101925.53;7395666;19;20038;-67
2023/10/08 08:20:34;;;;;;;8.05;2.60;;;;;;;10.73;92.36;101926.41;7397397;19;20023;-68
2023/10/08 08:23:06;;;;;;;6.15;2.10;;;;;;;10.77;94.23;101920.25;7394868;19;20066;-67
2023/10/08 08:25:55;;;;;;;6.28;1.80;;;;;;;10.82;94.18;101922.88;7397596;19;20018;-67
2023/10/08 08:28:24;;;;;;;6.10;1.80;;;;;;;10.84;92.57;101932.50;7395407;19;20485;-67
2023/10/08 08:30:57;;;;;;;5.53;2.40;;;;;;;10.86;91.80;101924.59;7397303;19;20085;-67
2023/10/08 08:33:29;;;;;;;4.22;1.70;;;;;;;10.89;91.94;101930.72;7397811;19;20037;-68
2023/10/08 08:36:05;;;;;;;5.28;1.92;;;;;;;10.91;91.13;101928.09;7397095;19;20350;-67
2023/10/08 08:38:33;;;;;;;5.75;2.13;;;;;;;10.96;88.95;101939.44;7395652;19;20014;-67
2023/10/08 08:41:12;;;;;;;6.05;1.73;;;;;;;10.97;89.17;101941.19;7394527;19;20034;-67
2023/10/08 08:43:44;;;;;;;3.67;1.08;;;;;;;11.01;89.68;101942.06;7396756;19;20010;-67
2023/10/08 08:46:13;;;;;;;6.55;1.35;;;;;;;11.04;88.47;101944.66;7398295;19;20021;-67
2023/10/08 08:48:51;;;;;;;9.05;1.63;;;;;;;11.06;88.09;101946.41;6263137;19;22214855;-67
2023/10/08 08:51:22;;;;;;;2.97;1.20;;;;;;;11.10;87.49;101954.28;7399515;19;20078;-66
2023/10/08 08:53:52;;;;;;;4.35;1.70;;;;;;;11.14;87.98;101959.47;7396327;19;20007;-67
2023/10/08 08:56:24;;;;;;;8.13;2.08;;;;;;;11.20;87.02;101961.22;7398991;19;20022;-67
2023/10/08 08:58:54;;;;;;;6.85;2.15;;;;;;;11.24;86.89;101963.81;7396901;19;20018;-67
2023/10/08 09:01:23;;;;;;;7.10;1.42;;;;;;;11.29;86.78;101966.41;7398960;19;20010;-67
2023/10/08 09:03:51;;;;;;;3.42;1.30;;;;;;;11.33;86.54;101968.16;7398567;19;20035;-67
2023/10/08 09:06:20;;;;;;;3.38;1.65;;;;;;;11.36;86.60;101962.00;7397197;19;20020;-66
2023/10/08 09:08:50;;;;;;;4.60;1.88;;;;;;;11.40;86.47;101966.38;7395407;19;20007;-67
2023/10/08 09:11:19;;;;;;;5.43;1.65;;;;;;;11.45;86.34;101969.84;7397703;19;20477;-67
2023/10/08 09:13:50;;;;;;;3.22;1.42;;;;;;;11.50;85.56;101975.94;7397768;19;20506;-68
2023/10/08 09:16:19;;;;;;;6.05;1.50;;;;;;;11.54;84.30;101974.19;7398612;19;20362;-66
2023/10/08 09:18:51;;;;;;;2.70;1.27;;;;;;;11.56;82.86;101978.53;7395635;19;20027;-68
2023/10/08 09:21:22;;;;;;;2.40;1.10;;;;;;;11.57;81.99;101975.03;7397963;19;20010;-67
2023/10/08 09:23:54;;;;;;;2.45;1.00;;;;;;;11.57;82.15;101982.94;7397464;19;20011;-67
2023/10/08 09:26:27;;;;;;;4.07;1.17;;;;;;;11.59;81.37;101990.78;7398490;19;20014;-67
2023/10/08 09:28:58;;;;;;;2.47;1.20;;;;;;;11.62;82.30;101982.00;7395751;19;20019;-67
2023/10/08 09:31:30;;;;;;;1.33;1.02;;;;;;;11.65;81.95;101975.00;7398017;19;20085;-67
2023/10/08 09:33:59;;;;;;;4.18;1.23;;;;;;;11.70;81.42;101983.72;7397112;19;20010;-67
2023/10/08 09:36:31;;;;;;;4.07;1.20;;;;;;;11.72;79.61;101992.44;7397731;19;20083;-67
2023/10/08 09:39:04;;;;;;;4.47;1.20;;;;;;;11.75;79.36;101991.56;7394905;19;20014;-67
2023/10/08 09:41:34;;;;;;;2.70;1.20;;;;;;;11.79;77.17;101997.66;7395028;19;20007;-67
2023/10/08 09:44:10;;;;;;;3.38;1.52;;;;;;;11.81;78.44;101998.53;7398200;19;20018;-67
2023/10/08 09:46:47;;;;;;;4.07;1.00;;;;;;;11.84;77.09;102002.03;7394907;19;20109;-67
2023/10/08 09:49:18;;;;;;;3.78;1.15;;;;;;;11.88;77.28;102010.78;7396457;19;20548;-68
2023/10/08 09:51:49;;;;;;;3.67;1.00;;;;;;;11.92;76.13;102022.13;7396317;19;20031;-68
2023/10/08 09:54:24;;;;;;;3.47;1.17;;;;;;;11.93;76.67;102019.50;7396959;19;20075;-68
2023/10/08 09:56:53;;;;;;;5.28;2.13;;;;;;;11.97;76.89;102016.00;7396491;19;20018;-66
2023/10/08 09:59:25;;;;;;;4.85;2.30;;;;;;;12.03;77.14;102015.94;7394841;19;20090;-67
2023/10/08 10:01:59;;;;;;;4.25;2.30;;;;;;;12.09;75.86;102015.00;7394568;19;20360;-68
2023/10/08 10:04:28;;;;;;;4.35;1.20;;;;;;;12.18;75.60;102019.31;7396009;19;20006;-67
2023/10/08 10:06:57;;;;;;;7.70;1.58;;;;;;;12.24;74.47;102021.91;7395577;19;20508;-67
2023/10/08 10:09:28;;;;;;;2.75;1.20;;;;;;;12.30;73.74;102026.28;7396713;19;20073;-67
2023/10/08 10:11:57;;;;;;;3.15;0.75;;;;;;;12.33;68.44;102027.13;7395345;19;20014;-67
2023/10/08 10:14:43;;;;;;;2.75;0.80;;;;;;;12.37;71.49;102027.94;7395780;19;20343;-67
2023/10/08 10:17:12;;;;;;;5.55;1.10;;;;;;;12.39;71.41;102026.19;7395603;19;20036;-67
2023/10/08 10:19:45;;;;;;;4.00;1.08;;;;;;;12.43;71.39;102017.34;7393111;19;20022;-67
2023/10/08 10:22:16;;;;;;;2.92;1.13;;;;;;;12.47;70.97;102028.75;7394206;19;20353;-66
2023/10/08 10:24:45;;;;;;;2.80;0.75;;;;;;;12.50;65.36;102026.97;7393812;19;20010;-67
2023/10/08 10:27:18;;;;;;;3.58;0.80;;;;;;;12.53;65.44;102026.91;7394867;19;20011;-67
2023/10/08 10:29:49;;;;;;;3.22;1.00;;;;;;;12.58;65.10;102026.03;7395548;19;20003;-68
2023/10/08 10:32:18;;;;;;;4.72;0.80;;;;;;;12.60;64.93;102032.13;7394913;19;20019;-68
2023/10/08 10:34:51;;;;;;;3.67;1.13;;;;;;;12.65;64.47;102035.56;7394745;19;20010;-67
2023/10/08 10:37:23;;;;;;;1.77;1.00;;;;;;;12.70;63.99;102031.13;7394693;19;20006;-67
2023/10/08 10:39:59;;;;;;;2.30;0.63;;;;;;;12.76;63.76;102033.72;7392984;19;20485;-68
2023/10/08 10:42:28;;;;;;;3.15;1.48;;;;;;;12.87;63.94;102038.88;7395166;19;20010;-68
2023/10/08 10:45:01;;;;;;;2.00;0.82;;;;;;;12.98;63.42;102038.78;7394320;19;20014;-68
2023/10/08 10:47:27;;;;;;;7.25;0.85;;;;;;;13.09;63.13;102042.16;7393264;19;20025;-68
2023/10/08 10:50:18;;;;;;;2.45;1.33;;;;;;;13.22;61.50;102049.91;7394686;19;20093;-67
2023/10/08 10:52:51;;;;;;;1.73;0.85;;;;;;;13.31;61.48;102044.53;7393916;19;20492;-67
2023/10/08 10:55:22;;;;;;;2.03;1.00;;;;;;;13.38;60.70;102046.22;7395068;19;20010;-68
2023/10/08 10:57:56;;;;;;;4.43;0.98;;;;;;;13.42;61.53;102042.69;7393676;19;20037;-67
2023/10/08 11:03:16;;;;;;;4.57;2.42;;;;;;;13.49;59.73;102041.69;7393951;19;20018;-67
2023/10/08 11:05:49;;;;;;;2.63;0.77;;;;;;;13.52;58.35;102046.03;7393915;19;20010;-68
2023/10/08 11:08:22;;;;;;;3.08;1.08;;;;;;;13.51;58.80;102047.81;7392258;19;20014;-67
2023/10/08 11:10:52;;;;;;;2.58;0.73;;;;;;;13.51;58.21;102049.59;7392801;19;20021;-67
2023/10/08 11:13:22;;;;;;;2.10;0.90;;;;;;;13.55;58.38;102037.22;7391830;19;20020;-68
2023/10/08 11:15:59;;;;;;;2.65;0.85;;;;;;;13.59;56.37;102041.56;7394410;19;20524;-69
2023/10/08 11:18:30;;;;;;;2.17;0.95;;;;;;;13.61;57.49;102031.88;7392177;19;20018;-67
2023/10/08 11:21:13;;;;;;;3.25;1.63;;;;;;;13.66;57.96;102032.66;7394220;19;20015;-67
2023/10/08 11:23:46;;;;;;;8.38;5.20;;;;;;;13.70;58.62;102031.75;7392535;19;20032;-67
2023/10/08 11:26:16;;;;;;;6.57;1.65;;;;;;;13.73;57.51;102036.97;7394370;19;20037;-66
2023/10/08 11:28:47;;;;;;;1.80;0.90;;;;;;;13.71;57.29;102032.63;7391726;19;20037;-68
2023/10/08 11:31:21;;;;;;;1.98;0.88;;;;;;;13.64;54.14;102037.09;7394296;19;20011;-68
2023/10/08 11:33:53;;;;;;;2.38;1.00;;;;;;;13.59;56.46;102031.03;7394212;19;20017;-67
2023/10/08 11:36:27;;;;;;;3.35;0.80;;;;;;;13.59;56.63;102039.81;7392243;19;20027;-66
2023/10/08 11:39:00;;;;;;;4.13;1.48;;;;;;;13.64;56.95;102037.97;7391798;19;20041;-67
2023/10/08 11:41:44;;;;;;;3.75;1.08;;;;;;;13.72;56.58;102035.22;7394055;19;20070;-68
2023/10/08 11:44:13;;;;;;;2.37;0.90;;;;;;;13.85;57.11;102026.25;7393334;19;20070;-68
2023/10/08 11:46:44;;;;;;;1.30;0.63;;;;;;;13.97;56.17;102032.22;7393387;19;20010;-68
2023/10/08 11:49:17;;;;;;;2.65;1.00;;;;;;;14.07;56.48;102031.19;7393809;19;20074;-68
2023/10/08 11:51:47;;;;;;;3.57;1.20;;;;;;;14.14;56.60;102027.56;7393636;19;20018;-65
2023/10/08 11:54:15;;;;;;;2.15;1.00;;;;;;;14.23;56.44;102030.94;7392987;19;20074;-67
2023/10/08 11:56:44;;;;;;;1.95;0.70;;;;;;;14.25;53.70;102037.06;7393627;19;20011;-68
2023/10/08 11:59:12;;;;;;;2.03;0.88;;;;;;;14.21;53.77;102032.75;7399227;19;20438;-68
2023/10/08 12:01:46;;;;;;;2.75;1.30;;;;;;;14.13;51.43;102036.38;7400319;19;20010;-67
2023/10/08 12:04:16;;;;;;;2.13;0.87;;;;;;;14.08;53.29;102038.22;7400190;19;20516;-68
2023/10/08 12:06:47;;;;;;;3.22;1.20;;;;;;;14.02;52.70;102030.38;7397323;19;20481;-68
2023/10/08 12:09:15;;;;;;;4.13;1.15;;;;;;;13.97;53.06;102025.16;7400064;19;20010;-68